San Juan Clipper — WDH9703 — position and weather

sailwx.info

Track history (hours):
 
Tides and Currents Weather Stations Pressure Air Temp Water Temp Dewpoint Dewpoint Depression Visibility Wind Speed Wind Dir Waves Ship Positions

San Juan Clipper

Owner: Clipper Navigation Inc., Seattle, WA. More information available from US FCC via Universal Licensing System and Coast Guard Vessel Documentation Center.

Last reported at 2017-Oct-09 03:55 UTC. Time now 2017-Oct-18 07:08 UTC.
Position N 47°37' W 122°21'.
Warning: this ship's position is 9 days out of date.

Length 26 m; draft 1.5 m.

Type: Passenger vessel. MMSI: 366902890.

Date/timePositionNaut miles runAvg speedWind from/ knotsBaromVisibWave heightAir tempDewpointWater temp
2017-Oct-09 03:55N 47°37' W 122°21'2 3.3
2017-Oct-09 03:27N 47°35' W 122°21'2 3.4
2017-Oct-09 03:00N 47°37' W 122°21'612.7
2017-Oct-09 02:31N 47°41' W 122°28'1223.0
2017-Oct-09 02:01N 47°53' W 122°29'1223.7
2017-Oct-09 01:30N 48°03' W 122°39'1524.3
2017-Oct-09 00:53N 48°16' W 122°48'923.1
2017-Oct-09 00:30N 48°24' W 122°54'918.8
2017-Oct-09 00:00N 48°32' W 123°01'0 0.5
2017-Oct-08 23:29N 48°32' W 123°01'0 0.0
2017-Oct-08 22:59N 48°32' W 123°01'0 0.0
2017-Oct-08 22:29N 48°32' W 123°01'0 0.0
2017-Oct-08 21:59N 48°32' W 123°01'1 3.0
2017-Oct-08 21:31N 48°33' W 122°59'713.8
2017-Oct-08 21:01N 48°26' W 122°58'713.2
2017-Oct-08 20:31N 48°22' W 123°06'2 3.5
2017-Oct-08 20:00N 48°21' W 123°03'918.0
2017-Oct-08 19:31N 48°29' W 122°57'4 7.0
2017-Oct-08 19:00N 48°32' W 123°01'815.1
2017-Oct-08 18:31N 48°33' W 122°49'1120.8
2017-Oct-08 18:00N 48°24' W 122°39'817.4
2017-Oct-08 17:30N 48°19' W 122°30'1121.2
2017-Oct-08 16:59N 48°08' W 122°31'1121.9
2017-Oct-08 16:30N 47°60' W 122°21'1122.9
2017-Oct-08 16:01N 47°49' W 122°27'714.7
2017-Oct-08 15:31N 47°42' W 122°27'612.3
2017-Oct-08 15:00N 47°37' W 122°21'0 0.0
2017-Oct-08 14:30N 47°37' W 122°21'0 0.0
2017-Oct-08 13:58N 47°37' W 122°21'0 0.0
2017-Oct-08 03:45N 47°37' W 122°21'2 5.8
2017-Oct-08 03:29N 47°35' W 122°21'2 2.7
2017-Oct-08 02:55N 47°37' W 122°21'717.0
2017-Oct-08 02:31N 47°42' W 122°28'1224.1
2017-Oct-08 02:00N 47°54' W 122°30'1224.5
2017-Oct-08 01:30N 48°05' W 122°40'1224.1
2017-Oct-08 01:00N 48°15' W 122°49'1122.5
2017-Oct-08 00:31N 48°24' W 122°58'917.1
2017-Oct-08 00:01N 48°32' W 123°01'0 0.7
2017-Oct-07 23:30N 48°32' W 123°01'0 0.0
2017-Oct-07 23:00N 48°32' W 123°01'0 0.0
2017-Oct-07 22:30N 48°32' W 123°01'0 0.0
2017-Oct-07 22:00N 48°32' W 123°01'0 0.8
2017-Oct-07 21:30N 48°32' W 123°01'816.0
2017-Oct-07 21:01N 48°25' W 122°58'2 4.9
2017-Oct-07 20:31N 48°27' W 122°57'611.6
2017-Oct-07 19:59N 48°32' W 123°01'4 7.8
2017-Oct-07 19:30N 48°33' W 122°55'816.5
2017-Oct-07 19:01N 48°29' W 122°44'1317.4
2017-Oct-07 18:17N 48°20' W 122°32'720.0
2017-Oct-07 17:56N 48°13' W 122°33'921.6
2017-Oct-07 17:30N 48°05' W 122°26'1020.6
2017-Oct-07 17:01N 47°55' W 122°22'713.7
2017-Oct-07 16:30N 47°49' W 122°27'2 3.1
2017-Oct-07 16:00N 47°48' W 122°28'917.4
2017-Oct-07 15:31N 47°39' W 122°27'5 8.6
2017-Oct-07 14:59N 47°37' W 122°21'0 0.0
2017-Oct-07 14:29N 47°37' W 122°21'0 0.0
2017-Oct-07 13:58N 47°37' W 122°21'  
2017-Oct-02 03:48N 47°37' W 122°21'2 5.2
2017-Oct-02 03:30N 47°35' W 122°21'2 3.0
2017-Oct-02 03:00N 47°37' W 122°21'1120.6
2017-Oct-02 02:29N 47°47' W 122°27'918.6
2017-Oct-02 02:00N 47°55' W 122°31'1123.1
2017-Oct-02 01:30N 48°05' W 122°39'1223.0
2017-Oct-02 00:59N 48°16' W 122°49'1224.4
2017-Oct-02 00:30N 48°26' W 122°56'713.8
2017-Oct-02 00:00N 48°32' W 123°01'0 0.5
2017-Oct-01 23:30N 48°33' W 123°00'815.7
2017-Oct-01 23:00N 48°38' W 123°09'3 5.2
2017-Oct-01 22:30N 48°37' W 123°12'2 4.6
2017-Oct-01 22:00N 48°35' W 123°12'815.2
2017-Oct-01 21:31N 48°40' W 123°04'816.9
2017-Oct-01 21:00N 48°32' W 123°01'0 0.1
2017-Oct-01 20:29N 48°32' W 123°01'0 0.0
2017-Oct-01 19:56N 48°32' W 123°01'0 0.0
2017-Oct-01 19:29N 48°32' W 123°01'0 0.3
2017-Oct-01 19:00N 48°32' W 123°01'714.8
2017-Oct-01 18:31N 48°32' W 122°50'4220.6
2017-Oct-01 16:29N 47°55' W 122°22'817.4
2017-Oct-01 16:00N 47°48' W 122°28'714.8
2017-Oct-01 15:30N 47°40' W 122°26'5 9.6
2017-Oct-01 14:59N 47°37' W 122°21'0 0.0
2017-Oct-01 04:16N 47°37' W 122°21'2 4.9
2017-Oct-01 03:58N 47°35' W 122°21'2 3.3
2017-Oct-01 03:30N 47°37' W 122°21'612.4
2017-Oct-01 03:01N 47°41' W 122°28'  
Track history (hours):
 
Tides and Currents Weather Stations Pressure Air Temp Water Temp Dewpoint Dewpoint Depression Visibility Wind Speed Wind Dir Waves Ship Positions

San Juan Clipper

Owner: Clipper Navigation Inc., Seattle, WA. More information available from US FCC via Universal Licensing System and Coast Guard Vessel Documentation Center.

Last reported at 2017-Oct-09 03:55 UTC. Time now 2017-Oct-18 07:08 UTC.
Position N 47°37' W 122°21'.
Warning: this ship's position is 9 days out of date.

Length 26 m; draft 1.5 m.

Type: Passenger vessel. MMSI: 366902890.

Date/timePositionNaut miles runAvg speedWind from/ knotsBaromVisibWave heightAir tempDewpointWater temp
2017-Oct-09 03:55N 47°37' W 122°21'2 3.3
2017-Oct-09 03:27N 47°35' W 122°21'2 3.4
2017-Oct-09 03:00N 47°37' W 122°21'612.7
2017-Oct-09 02:31N 47°41' W 122°28'1223.0
2017-Oct-09 02:01N 47°53' W 122°29'1223.7
2017-Oct-09 01:30N 48°03' W 122°39'1524.3
2017-Oct-09 00:53N 48°16' W 122°48'923.1
2017-Oct-09 00:30N 48°24' W 122°54'918.8
2017-Oct-09 00:00N 48°32' W 123°01'0 0.5
2017-Oct-08 23:29N 48°32' W 123°01'0 0.0
2017-Oct-08 22:59N 48°32' W 123°01'0 0.0
2017-Oct-08 22:29N 48°32' W 123°01'0 0.0
2017-Oct-08 21:59N 48°32' W 123°01'1 3.0
2017-Oct-08 21:31N 48°33' W 122°59'713.8
2017-Oct-08 21:01N 48°26' W 122°58'713.2
2017-Oct-08 20:31N 48°22' W 123°06'2 3.5
2017-Oct-08 20:00N 48°21' W 123°03'918.0
2017-Oct-08 19:31N 48°29' W 122°57'4 7.0
2017-Oct-08 19:00N 48°32' W 123°01'815.1
2017-Oct-08 18:31N 48°33' W 122°49'1120.8
2017-Oct-08 18:00N 48°24' W 122°39'817.4
2017-Oct-08 17:30N 48°19' W 122°30'1121.2
2017-Oct-08 16:59N 48°08' W 122°31'1121.9
2017-Oct-08 16:30N 47°60' W 122°21'1122.9
2017-Oct-08 16:01N 47°49' W 122°27'714.7
2017-Oct-08 15:31N 47°42' W 122°27'612.3
2017-Oct-08 15:00N 47°37' W 122°21'0 0.0
2017-Oct-08 14:30N 47°37' W 122°21'0 0.0
2017-Oct-08 13:58N 47°37' W 122°21'0 0.0
2017-Oct-08 03:45N 47°37' W 122°21'2 5.8
2017-Oct-08 03:29N 47°35' W 122°21'2 2.7
2017-Oct-08 02:55N 47°37' W 122°21'717.0
2017-Oct-08 02:31N 47°42' W 122°28'1224.1
2017-Oct-08 02:00N 47°54' W 122°30'1224.5
2017-Oct-08 01:30N 48°05' W 122°40'1224.1
2017-Oct-08 01:00N 48°15' W 122°49'1122.5
2017-Oct-08 00:31N 48°24' W 122°58'917.1
2017-Oct-08 00:01N 48°32' W 123°01'0 0.7
2017-Oct-07 23:30N 48°32' W 123°01'0 0.0
2017-Oct-07 23:00N 48°32' W 123°01'0 0.0
2017-Oct-07 22:30N 48°32' W 123°01'0 0.0
2017-Oct-07 22:00N 48°32' W 123°01'0 0.8
2017-Oct-07 21:30N 48°32' W 123°01'816.0
2017-Oct-07 21:01N 48°25' W 122°58'2 4.9
2017-Oct-07 20:31N 48°27' W 122°57'611.6
2017-Oct-07 19:59N 48°32' W 123°01'4 7.8
2017-Oct-07 19:30N 48°33' W 122°55'816.5
2017-Oct-07 19:01N 48°29' W 122°44'1317.4
2017-Oct-07 18:17N 48°20' W 122°32'720.0
2017-Oct-07 17:56N 48°13' W 122°33'921.6
2017-Oct-07 17:30N 48°05' W 122°26'1020.6
2017-Oct-07 17:01N 47°55' W 122°22'713.7
2017-Oct-07 16:30N 47°49' W 122°27'2 3.1
2017-Oct-07 16:00N 47°48' W 122°28'917.4
2017-Oct-07 15:31N 47°39' W 122°27'5 8.6
2017-Oct-07 14:59N 47°37' W 122°21'0 0.0
2017-Oct-07 14:29N 47°37' W 122°21'0 0.0
2017-Oct-07 13:58N 47°37' W 122°21'  
2017-Oct-02 03:48N 47°37' W 122°21'2 5.2
2017-Oct-02 03:30N 47°35' W 122°21'2 3.0
2017-Oct-02 03:00N 47°37' W 122°21'1120.6
2017-Oct-02 02:29N 47°47' W 122°27'918.6
2017-Oct-02 02:00N 47°55' W 122°31'1123.1
2017-Oct-02 01:30N 48°05' W 122°39'1223.0
2017-Oct-02 00:59N 48°16' W 122°49'1224.4
2017-Oct-02 00:30N 48°26' W 122°56'713.8
2017-Oct-02 00:00N 48°32' W 123°01'0 0.5
2017-Oct-01 23:30N 48°33' W 123°00'815.7
2017-Oct-01 23:00N 48°38' W 123°09'3 5.2
2017-Oct-01 22:30N 48°37' W 123°12'2 4.6
2017-Oct-01 22:00N 48°35' W 123°12'815.2
2017-Oct-01 21:31N 48°40' W 123°04'816.9
2017-Oct-01 21:00N 48°32' W 123°01'0 0.1
2017-Oct-01 20:29N 48°32' W 123°01'0 0.0
2017-Oct-01 19:56N 48°32' W 123°01'0 0.0
2017-Oct-01 19:29N 48°32' W 123°01'0 0.3
2017-Oct-01 19:00N 48°32' W 123°01'714.8
2017-Oct-01 18:31N 48°32' W 122°50'4220.6
2017-Oct-01 16:29N 47°55' W 122°22'817.4
2017-Oct-01 16:00N 47°48' W 122°28'714.8
2017-Oct-01 15:30N 47°40' W 122°26'5 9.6
2017-Oct-01 14:59N 47°37' W 122°21'0 0.0
2017-Oct-01 04:16N 47°37' W 122°21'2 4.9
2017-Oct-01 03:58N 47°35' W 122°21'2 3.3
2017-Oct-01 03:30N 47°37' W 122°21'612.4
2017-Oct-01 03:01N 47°41' W 122°28'  

Dump ship's entire track history